sensor_id;sensor_type;location;lat;lon;timestamp;P1;durP1;ratioP1;P2;durP2;ratioP2
7539;SDS011;3811;49.006;12.076;2023-04-03T00:02:16;3.57;;;2.30;;
7539;SDS011;3811;49.006;12.076;2023-04-03T00:04:43;2.77;;;2.57;;
7539;SDS011;3811;49.006;12.076;2023-04-03T00:07:10;2.60;;;2.40;;
7539;SDS011;3811;49.006;12.076;2023-04-03T00:09:38;3.13;;;2.43;;
7539;SDS011;3811;49.006;12.076;2023-04-03T00:12:05;2.70;;;2.50;;
7539;SDS011;3811;49.006;12.076;2023-04-03T00:14:33;2.70;;;2.50;;
7539;SDS011;3811;49.006;12.076;2023-04-03T00:17:00;2.80;;;2.60;;
7539;SDS011;3811;49.006;12.076;2023-04-03T00:19:28;2.57;;;2.33;;
7539;SDS011;3811;49.006;12.076;2023-04-03T00:21:56;4.20;;;2.40;;
7539;SDS011;3811;49.006;12.076;2023-04-03T00:24:23;2.90;;;2.70;;
7539;SDS011;3811;49.006;12.076;2023-04-03T00:26:50;2.70;;;2.50;;
7539;SDS011;3811;49.006;12.076;2023-04-03T00:29:18;2.30;;;2.03;;
7539;SDS011;3811;49.006;12.076;2023-04-03T00:31:45;2.37;;;2.17;;
7539;SDS011;3811;49.006;12.076;2023-04-03T00:34:13;2.70;;;2.43;;
7539;SDS011;3811;49.006;12.076;2023-04-03T00:36:41;2.30;;;2.10;;
7539;SDS011;3811;49.006;12.076;2023-04-03T00:39:09;2.43;;;2.10;;
7539;SDS011;3811;49.006;12.076;2023-04-03T00:41:36;2.20;;;2.00;;
7539;SDS011;3811;49.006;12.076;2023-04-03T00:44:18;2.93;;;2.63;;
7539;SDS011;3811;49.006;12.076;2023-04-03T00:46:45;2.77;;;2.47;;
7539;SDS011;3811;49.006;12.076;2023-04-03T00:49:13;2.53;;;2.33;;
7539;SDS011;3811;49.006;12.076;2023-04-03T00:51:41;2.80;;;2.17;;
7539;SDS011;3811;49.006;12.076;2023-04-03T00:54:09;2.73;;;2.53;;
7539;SDS011;3811;49.006;12.076;2023-04-03T00:56:37;2.80;;;2.60;;
7539;SDS011;3811;49.006;12.076;2023-04-03T00:59:06;2.67;;;2.47;;
7539;SDS011;3811;49.006;12.076;2023-04-03T01:01:36;2.73;;;2.33;;
7539;SDS011;3811;49.006;12.076;2023-04-03T01:04:04;2.50;;;2.30;;
7539;SDS011;3811;49.006;12.076;2023-04-03T01:06:32;3.77;;;2.70;;
7539;SDS011;3811;49.006;12.076;2023-04-03T01:09:06;2.80;;;2.60;;
7539;SDS011;3811;49.006;12.076;2023-04-03T01:11:33;2.53;;;2.33;;
7539;SDS011;3811;49.006;12.076;2023-04-03T01:14:01;2.33;;;2.17;;
7539;SDS011;3811;49.006;12.076;2023-04-03T01:16:31;2.90;;;2.60;;
7539;SDS011;3811;49.006;12.076;2023-04-03T01:18:58;2.53;;;2.33;;
7539;SDS011;3811;49.006;12.076;2023-04-03T01:24:29;3.20;;;2.90;;
7539;SDS011;3811;49.006;12.076;2023-04-03T01:27:03;2.97;;;2.33;;
7539;SDS011;3811;49.006;12.076;2023-04-03T01:29:32;2.63;;;2.43;;
7539;SDS011;3811;49.006;12.076;2023-04-03T01:32:01;2.33;;;2.20;;
7539;SDS011;3811;49.006;12.076;2023-04-03T01:34:29;3.63;;;2.30;;
7539;SDS011;3811;49.006;12.076;2023-04-03T01:36:57;2.43;;;2.23;;
7539;SDS011;3811;49.006;12.076;2023-04-03T01:39:24;2.93;;;2.27;;
7539;SDS011;3811;49.006;12.076;2023-04-03T01:41:52;2.57;;;2.17;;
7539;SDS011;3811;49.006;12.076;2023-04-03T01:44:28;2.53;;;2.33;;
7539;SDS011;3811;49.006;12.076;2023-04-03T01:46:55;4.23;;;2.57;;
7539;SDS011;3811;49.006;12.076;2023-04-03T01:49:26;4.30;;;2.40;;
7539;SDS011;3811;49.006;12.076;2023-04-03T01:51:54;2.60;;;2.40;;
7539;SDS011;3811;49.006;12.076;2023-04-03T01:54:21;2.57;;;2.37;;
7539;SDS011;3811;49.006;12.076;2023-04-03T01:56:48;3.03;;;2.53;;
7539;SDS011;3811;49.006;12.076;2023-04-03T01:59:17;2.50;;;2.30;;
7539;SDS011;3811;49.006;12.076;2023-04-03T02:01:44;2.43;;;2.23;;
7539;SDS011;3811;49.006;12.076;2023-04-03T02:04:12;2.43;;;2.33;;
7539;SDS011;3811;49.006;12.076;2023-04-03T02:06:41;2.50;;;2.30;;
7539;SDS011;3811;49.006;12.076;2023-04-03T02:09:08;3.73;;;2.40;;
7539;SDS011;3811;49.006;12.076;2023-04-03T02:11:36;2.17;;;2.00;;
7539;SDS011;3811;49.006;12.076;2023-04-03T02:14:03;2.70;;;2.50;;
7539;SDS011;3811;49.006;12.076;2023-04-03T02:16:31;3.63;;;2.37;;
7539;SDS011;3811;49.006;12.076;2023-04-03T02:18:58;3.20;;;2.60;;
7539;SDS011;3811;49.006;12.076;2023-04-03T02:21:25;3.20;;;2.77;;
7539;SDS011;3811;49.006;12.076;2023-04-03T02:23:54;2.50;;;2.30;;
7539;SDS011;3811;49.006;12.076;2023-04-03T02:26:22;2.50;;;2.30;;
7539;SDS011;3811;49.006;12.076;2023-04-03T02:28:50;2.40;;;2.23;;
7539;SDS011;3811;49.006;12.076;2023-04-03T02:31:17;3.20;;;2.57;;
7539;SDS011;3811;49.006;12.076;2023-04-03T02:33:47;2.30;;;2.10;;
7539;SDS011;3811;49.006;12.076;2023-04-03T02:36:15;2.73;;;2.53;;
7539;SDS011;3811;49.006;12.076;2023-04-03T02:38:47;2.53;;;2.30;;
7539;SDS011;3811;49.006;12.076;2023-04-03T02:41:15;2.77;;;2.40;;
7539;SDS011;3811;49.006;12.076;2023-04-03T02:43:43;2.93;;;2.63;;
7539;SDS011;3811;49.006;12.076;2023-04-03T02:46:10;2.57;;;2.37;;
7539;SDS011;3811;49.006;12.076;2023-04-03T02:48:40;4.10;;;2.50;;
7539;SDS011;3811;49.006;12.076;2023-04-03T02:51:07;3.00;;;2.50;;
7539;SDS011;3811;49.006;12.076;2023-04-03T02:53:34;4.27;;;2.67;;
7539;SDS011;3811;49.006;12.076;2023-04-03T02:56:08;2.73;;;2.53;;
7539;SDS011;3811;49.006;12.076;2023-04-03T02:58:37;2.67;;;2.47;;
7539;SDS011;3811;49.006;12.076;2023-04-03T03:01:06;2.57;;;2.20;;
7539;SDS011;3811;49.006;12.076;2023-04-03T03:03:33;2.90;;;2.70;;
7539;SDS011;3811;49.006;12.076;2023-04-03T03:06:01;3.40;;;2.50;;
7539;SDS011;3811;49.006;12.076;2023-04-03T03:08:28;3.10;;;2.50;;
7539;SDS011;3811;49.006;12.076;2023-04-03T03:10:55;3.10;;;2.37;;
7539;SDS011;3811;49.006;12.076;2023-04-03T03:13:23;2.60;;;2.40;;
7539;SDS011;3811;49.006;12.076;2023-04-03T03:15:51;3.27;;;2.70;;
7539;SDS011;3811;49.006;12.076;2023-04-03T03:18:19;3.10;;;2.80;;
7539;SDS011;3811;49.006;12.076;2023-04-03T03:20:50;2.80;;;2.60;;
7539;SDS011;3811;49.006;12.076;2023-04-03T03:23:18;2.20;;;2.10;;
7539;SDS011;3811;49.006;12.076;2023-04-03T03:25:45;4.07;;;2.30;;
7539;SDS011;3811;49.006;12.076;2023-04-03T03:28:13;2.70;;;2.50;;
7539;SDS011;3811;49.006;12.076;2023-04-03T03:30:40;3.47;;;2.50;;
7539;SDS011;3811;49.006;12.076;2023-04-03T03:33:09;2.30;;;2.20;;
7539;SDS011;3811;49.006;12.076;2023-04-03T03:35:36;2.37;;;2.20;;
7539;SDS011;3811;49.006;12.076;2023-04-03T03:38:03;2.07;;;1.90;;
7539;SDS011;3811;49.006;12.076;2023-04-03T03:40:31;4.37;;;2.50;;
7539;SDS011;3811;49.006;12.076;2023-04-03T03:42:58;3.87;;;2.47;;
7539;SDS011;3811;49.006;12.076;2023-04-03T03:45:26;2.93;;;2.63;;
7539;SDS011;3811;49.006;12.076;2023-04-03T03:47:53;2.60;;;2.40;;
7539;SDS011;3811;49.006;12.076;2023-04-03T03:50:22;3.77;;;2.23;;
7539;SDS011;3811;49.006;12.076;2023-04-03T03:52:49;2.90;;;2.70;;
7539;SDS011;3811;49.006;12.076;2023-04-03T03:55:17;4.50;;;2.43;;
7539;SDS011;3811;49.006;12.076;2023-04-03T03:57:49;2.63;;;2.03;;
7539;SDS011;3811;49.006;12.076;2023-04-03T04:00:17;2.53;;;2.33;;
7539;SDS011;3811;49.006;12.076;2023-04-03T04:02:50;2.57;;;2.37;;
7539;SDS011;3811;49.006;12.076;2023-04-03T04:05:22;3.03;;;2.80;;
7539;SDS011;3811;49.006;12.076;2023-04-03T04:07:49;3.00;;;2.80;;
7539;SDS011;3811;49.006;12.076;2023-04-03T04:10:16;2.60;;;2.20;;
7539;SDS011;3811;49.006;12.076;2023-04-03T04:12:45;2.80;;;2.60;;
7539;SDS011;3811;49.006;12.076;2023-04-03T04:15:15;2.47;;;2.30;;
7539;SDS011;3811;49.006;12.076;2023-04-03T04:17:42;5.30;;;2.90;;
7539;SDS011;3811;49.006;12.076;2023-04-03T04:20:11;2.53;;;2.33;;
7539;SDS011;3811;49.006;12.076;2023-04-03T04:22:40;2.63;;;2.50;;
7539;SDS011;3811;49.006;12.076;2023-04-03T04:25:08;2.57;;;2.37;;
7539;SDS011;3811;49.006;12.076;2023-04-03T04:27:37;2.90;;;2.70;;
7539;SDS011;3811;49.006;12.076;2023-04-03T04:30:05;3.43;;;2.20;;
7539;SDS011;3811;49.006;12.076;2023-04-03T04:32:33;3.87;;;2.30;;
7539;SDS011;3811;49.006;12.076;2023-04-03T04:35:01;2.77;;;2.57;;
7539;SDS011;3811;49.006;12.076;2023-04-03T04:37:31;4.63;;;2.83;;
7539;SDS011;3811;49.006;12.076;2023-04-03T04:39:59;2.70;;;2.50;;
7539;SDS011;3811;49.006;12.076;2023-04-03T04:42:28;2.53;;;2.33;;
7539;SDS011;3811;49.006;12.076;2023-04-03T04:44:55;3.30;;;2.40;;
7539;SDS011;3811;49.006;12.076;2023-04-03T04:47:23;2.70;;;2.30;;
7539;SDS011;3811;49.006;12.076;2023-04-03T04:49:50;2.93;;;2.67;;
7539;SDS011;3811;49.006;12.076;2023-04-03T04:52:18;3.80;;;2.80;;
7539;SDS011;3811;49.006;12.076;2023-04-03T04:54:45;2.47;;;2.27;;
7539;SDS011;3811;49.006;12.076;2023-04-03T04:57:14;3.30;;;3.00;;
7539;SDS011;3811;49.006;12.076;2023-04-03T04:59:43;3.10;;;2.80;;
7539;SDS011;3811;49.006;12.076;2023-04-03T05:02:11;4.10;;;2.53;;
7539;SDS011;3811;49.006;12.076;2023-04-03T05:04:39;2.67;;;2.30;;
7539;SDS011;3811;49.006;12.076;2023-04-03T05:07:13;4.50;;;2.40;;
7539;SDS011;3811;49.006;12.076;2023-04-03T05:09:40;3.07;;;2.87;;
7539;SDS011;3811;49.006;12.076;2023-04-03T05:12:08;3.10;;;2.80;;
7539;SDS011;3811;49.006;12.076;2023-04-03T05:14:43;3.33;;;2.60;;
7539;SDS011;3811;49.006;12.076;2023-04-03T05:17:10;2.67;;;2.47;;
7539;SDS011;3811;49.006;12.076;2023-04-03T05:19:41;3.23;;;2.60;;
7539;SDS011;3811;49.006;12.076;2023-04-03T05:22:09;3.87;;;2.70;;
7539;SDS011;3811;49.006;12.076;2023-04-03T05:24:36;4.00;;;2.47;;
7539;SDS011;3811;49.006;12.076;2023-04-03T05:27:04;2.60;;;2.40;;
7539;SDS011;3811;49.006;12.076;2023-04-03T05:29:35;2.73;;;2.53;;
7539;SDS011;3811;49.006;12.076;2023-04-03T05:32:05;3.43;;;2.57;;
7539;SDS011;3811;49.006;12.076;2023-04-03T05:34:32;2.57;;;2.37;;
7539;SDS011;3811;49.006;12.076;2023-04-03T05:37:00;2.83;;;2.63;;
7539;SDS011;3811;49.006;12.076;2023-04-03T05:39:29;3.03;;;2.77;;
7539;SDS011;3811;49.006;12.076;2023-04-03T05:41:59;3.03;;;2.63;;
7539;SDS011;3811;49.006;12.076;2023-04-03T05:44:26;2.90;;;2.50;;
7539;SDS011;3811;49.006;12.076;2023-04-03T05:46:54;3.90;;;3.40;;
7539;SDS011;3811;49.006;12.076;2023-04-03T05:49:22;4.40;;;2.80;;
7539;SDS011;3811;49.006;12.076;2023-04-03T05:51:50;2.97;;;2.67;;
7539;SDS011;3811;49.006;12.076;2023-04-03T05:54:27;3.97;;;2.70;;
7539;SDS011;3811;49.006;12.076;2023-04-03T05:57:05;6.60;;;2.90;;
7539;SDS011;3811;49.006;12.076;2023-04-03T05:59:33;4.13;;;2.70;;
7539;SDS011;3811;49.006;12.076;2023-04-03T06:02:00;5.03;;;3.20;;
7539;SDS011;3811;49.006;12.076;2023-04-03T06:04:29;3.43;;;3.13;;
7539;SDS011;3811;49.006;12.076;2023-04-03T06:06:57;3.40;;;3.10;;
7539;SDS011;3811;49.006;12.076;2023-04-03T06:09:26;4.07;;;3.37;;
7539;SDS011;3811;49.006;12.076;2023-04-03T06:11:55;4.03;;;3.03;;
7539;SDS011;3811;49.006;12.076;2023-04-03T06:14:23;3.43;;;3.13;;
7539;SDS011;3811;49.006;12.076;2023-04-03T06:16:51;2.87;;;2.67;;
7539;SDS011;3811;49.006;12.076;2023-04-03T06:19:19;4.10;;;2.80;;
7539;SDS011;3811;49.006;12.076;2023-04-03T06:21:51;3.30;;;3.00;;
7539;SDS011;3811;49.006;12.076;2023-04-03T06:24:19;3.47;;;3.17;;
7539;SDS011;3811;49.006;12.076;2023-04-03T06:26:47;4.40;;;3.17;;
7539;SDS011;3811;49.006;12.076;2023-04-03T06:29:16;3.33;;;3.03;;
7539;SDS011;3811;49.006;12.076;2023-04-03T06:31:44;3.37;;;3.07;;
7539;SDS011;3811;49.006;12.076;2023-04-03T06:34:11;3.27;;;2.90;;
7539;SDS011;3811;49.006;12.076;2023-04-03T06:36:38;6.20;;;3.60;;
7539;SDS011;3811;49.006;12.076;2023-04-03T06:39:08;7.70;;;3.40;;
7539;SDS011;3811;49.006;12.076;2023-04-03T06:41:36;4.60;;;3.63;;
7539;SDS011;3811;49.006;12.076;2023-04-03T06:44:03;4.53;;;3.20;;
7539;SDS011;3811;49.006;12.076;2023-04-03T06:46:30;3.80;;;3.40;;
7539;SDS011;3811;49.006;12.076;2023-04-03T06:48:57;3.20;;;3.00;;
7539;SDS011;3811;49.006;12.076;2023-04-03T06:51:25;4.30;;;3.23;;
7539;SDS011;3811;49.006;12.076;2023-04-03T06:53:53;3.77;;;3.37;;
7539;SDS011;3811;49.006;12.076;2023-04-03T06:56:24;3.87;;;3.47;;
7539;SDS011;3811;49.006;12.076;2023-04-03T06:58:52;4.70;;;3.90;;
7539;SDS011;3811;49.006;12.076;2023-04-03T07:01:20;4.87;;;3.37;;
7539;SDS011;3811;49.006;12.076;2023-04-03T07:03:47;3.73;;;3.13;;
7539;SDS011;3811;49.006;12.076;2023-04-03T07:06:15;3.83;;;3.40;;
7539;SDS011;3811;49.006;12.076;2023-04-03T07:08:44;5.60;;;3.13;;
7539;SDS011;3811;49.006;12.076;2023-04-03T07:11:12;3.90;;;3.10;;
7539;SDS011;3811;49.006;12.076;2023-04-03T07:13:40;5.13;;;3.30;;
7539;SDS011;3811;49.006;12.076;2023-04-03T07:16:08;3.53;;;3.03;;
7539;SDS011;3811;49.006;12.076;2023-04-03T07:18:36;5.20;;;3.07;;
7539;SDS011;3811;49.006;12.076;2023-04-03T07:21:03;4.53;;;2.60;;
7539;SDS011;3811;49.006;12.076;2023-04-03T07:23:31;3.23;;;2.93;;
7539;SDS011;3811;49.006;12.076;2023-04-03T07:25:58;3.07;;;2.77;;
7539;SDS011;3811;49.006;12.076;2023-04-03T07:28:26;3.23;;;2.90;;
7539;SDS011;3811;49.006;12.076;2023-04-03T07:31:00;3.80;;;3.50;;
7539;SDS011;3811;49.006;12.076;2023-04-03T07:33:30;3.60;;;3.30;;
7539;SDS011;3811;49.006;12.076;2023-04-03T07:35:57;2.67;;;2.37;;
7539;SDS011;3811;49.006;12.076;2023-04-03T07:38:25;3.53;;;2.90;;
7539;SDS011;3811;49.006;12.076;2023-04-03T07:40:52;4.87;;;3.30;;
7539;SDS011;3811;49.006;12.076;2023-04-03T07:43:20;3.30;;;3.00;;
7539;SDS011;3811;49.006;12.076;2023-04-03T07:45:48;3.17;;;2.90;;
7539;SDS011;3811;49.006;12.076;2023-04-03T07:48:17;2.50;;;2.30;;
7539;SDS011;3811;49.006;12.076;2023-04-03T07:50:45;4.60;;;2.37;;
7539;SDS011;3811;49.006;12.076;2023-04-03T07:53:13;2.43;;;2.20;;
7539;SDS011;3811;49.006;12.076;2023-04-03T07:55:40;3.10;;;2.43;;
7539;SDS011;3811;49.006;12.076;2023-04-03T07:58:09;2.20;;;2.10;;
7539;SDS011;3811;49.006;12.076;2023-04-03T08:00:37;4.13;;;2.30;;
7539;SDS011;3811;49.006;12.076;2023-04-03T08:03:04;2.63;;;2.43;;
7539;SDS011;3811;49.006;12.076;2023-04-03T08:05:34;3.47;;;2.37;;
7539;SDS011;3811;49.006;12.076;2023-04-03T08:08:03;4.83;;;2.20;;
7539;SDS011;3811;49.006;12.076;2023-04-03T08:10:30;2.40;;;2.20;;
7539;SDS011;3811;49.006;12.076;2023-04-03T08:12:58;2.40;;;1.93;;
7539;SDS011;3811;49.006;12.076;2023-04-03T08:15:25;2.90;;;2.20;;
7539;SDS011;3811;49.006;12.076;2023-04-03T08:17:53;4.27;;;2.37;;
7539;SDS011;3811;49.006;12.076;2023-04-03T08:20:20;5.53;;;2.27;;
7539;SDS011;3811;49.006;12.076;2023-04-03T08:22:49;6.43;;;2.30;;
7539;SDS011;3811;49.006;12.076;2023-04-03T08:25:16;3.10;;;2.40;;
7539;SDS011;3811;49.006;12.076;2023-04-03T08:27:43;2.53;;;2.17;;
7539;SDS011;3811;49.006;12.076;2023-04-03T08:30:11;2.17;;;1.97;;
7539;SDS011;3811;49.006;12.076;2023-04-03T08:32:38;3.10;;;2.30;;
7539;SDS011;3811;49.006;12.076;2023-04-03T08:35:07;2.97;;;2.20;;
7539;SDS011;3811;49.006;12.076;2023-04-03T08:37:35;3.30;;;2.30;;
7539;SDS011;3811;49.006;12.076;2023-04-03T08:40:04;3.03;;;2.33;;
7539;SDS011;3811;49.006;12.076;2023-04-03T08:42:37;3.60;;;2.40;;
7539;SDS011;3811;49.006;12.076;2023-04-03T08:45:08;2.93;;;1.80;;
7539;SDS011;3811;49.006;12.076;2023-04-03T08:47:39;3.83;;;2.20;;
7539;SDS011;3811;49.006;12.076;2023-04-03T08:50:11;3.10;;;2.17;;
7539;SDS011;3811;49.006;12.076;2023-04-03T08:52:40;1.97;;;1.87;;
7539;SDS011;3811;49.006;12.076;2023-04-03T08:55:16;2.60;;;2.17;;
7539;SDS011;3811;49.006;12.076;2023-04-03T08:57:50;2.30;;;2.10;;
7539;SDS011;3811;49.006;12.076;2023-04-03T09:00:19;2.47;;;1.90;;
7539;SDS011;3811;49.006;12.076;2023-04-03T09:02:47;2.40;;;1.43;;
7539;SDS011;3811;49.006;12.076;2023-04-03T09:05:16;2.63;;;1.70;;
7539;SDS011;3811;49.006;12.076;2023-04-03T09:07:44;3.90;;;1.70;;
7539;SDS011;3811;49.006;12.076;2023-04-03T09:10:15;6.10;;;1.73;;
7539;SDS011;3811;49.006;12.076;2023-04-03T09:12:49;1.67;;;1.57;;
7539;SDS011;3811;49.006;12.076;2023-04-03T09:15:24;1.87;;;1.43;;
7539;SDS011;3811;49.006;12.076;2023-04-03T09:17:55;1.40;;;1.30;;
7539;SDS011;3811;49.006;12.076;2023-04-03T09:20:25;1.87;;;1.43;;
7539;SDS011;3811;49.006;12.076;2023-04-03T09:22:54;1.80;;;1.70;;
7539;SDS011;3811;49.006;12.076;2023-04-03T09:25:23;1.87;;;1.77;;
7539;SDS011;3811;49.006;12.076;2023-04-03T09:27:53;1.83;;;1.33;;
7539;SDS011;3811;49.006;12.076;2023-04-03T09:30:21;2.50;;;1.60;;
7539;SDS011;3811;49.006;12.076;2023-04-03T09:32:50;1.77;;;1.40;;
7539;SDS011;3811;49.006;12.076;2023-04-03T09:35:20;2.23;;;1.50;;
7539;SDS011;3811;49.006;12.076;2023-04-03T09:38:22;1.73;;;1.50;;
7539;SDS011;3811;49.006;12.076;2023-04-03T09:41:02;2.43;;;1.60;;
7539;SDS011;3811;49.006;12.076;2023-04-03T09:43:32;1.77;;;1.30;;
7539;SDS011;3811;49.006;12.076;2023-04-03T09:46:17;2.07;;;1.50;;
7539;SDS011;3811;49.006;12.076;2023-04-03T09:48:51;1.43;;;1.20;;
7539;SDS011;3811;49.006;12.076;2023-04-03T09:51:19;1.47;;;1.27;;
7539;SDS011;3811;49.006;12.076;2023-04-03T09:53:46;1.27;;;1.20;;
7539;SDS011;3811;49.006;12.076;2023-04-03T09:56:22;1.30;;;1.20;;
7539;SDS011;3811;49.006;12.076;2023-04-03T09:58:53;2.33;;;1.40;;
7539;SDS011;3811;49.006;12.076;2023-04-03T10:01:34;1.30;;;1.20;;
7539;SDS011;3811;49.006;12.076;2023-04-03T10:04:04;2.40;;;1.47;;
7539;SDS011;3811;49.006;12.076;2023-04-03T10:06:34;1.70;;;1.30;;
7539;SDS011;3811;49.006;12.076;2023-04-03T10:09:02;1.47;;;1.30;;
7539;SDS011;3811;49.006;12.076;2023-04-03T10:11:32;3.10;;;1.87;;
7539;SDS011;3811;49.006;12.076;2023-04-03T10:14:01;1.60;;;1.40;;
7539;SDS011;3811;49.006;12.076;2023-04-03T10:16:34;2.20;;;1.47;;
7539;SDS011;3811;49.006;12.076;2023-04-03T10:19:09;3.13;;;1.73;;
7539;SDS011;3811;49.006;12.076;2023-04-03T10:21:50;3.53;;;2.53;;
7539;SDS011;3811;49.006;12.076;2023-04-03T10:24:23;2.37;;;2.17;;
7539;SDS011;3811;49.006;12.076;2023-04-03T10:26:57;1.50;;;1.40;;
7539;SDS011;3811;49.006;12.076;2023-04-03T10:29:30;1.40;;;1.30;;
7539;SDS011;3811;49.006;12.076;2023-04-03T10:32:10;1.33;;;1.23;;
7539;SDS011;3811;49.006;12.076;2023-04-03T10:34:54;2.40;;;1.30;;
7539;SDS011;3811;49.006;12.076;2023-04-03T10:37:26;1.50;;;1.40;;
7539;SDS011;3811;49.006;12.076;2023-04-03T10:40:02;2.10;;;1.40;;
7539;SDS011;3811;49.006;12.076;2023-04-03T10:42:52;1.63;;;1.30;;
7539;SDS011;3811;49.006;12.076;2023-04-03T10:45:24;3.80;;;1.57;;
7539;SDS011;3811;49.006;12.076;2023-04-03T10:47:58;1.20;;;1.13;;
7539;SDS011;3811;49.006;12.076;2023-04-03T10:50:39;2.20;;;1.40;;
7539;SDS011;3811;49.006;12.076;2023-04-03T10:53:14;1.40;;;1.27;;
7539;SDS011;3811;49.006;12.076;2023-04-03T10:55:48;1.33;;;1.23;;
7539;SDS011;3811;49.006;12.076;2023-04-03T10:58:24;1.30;;;1.20;;
7539;SDS011;3811;49.006;12.076;2023-04-03T11:00:56;1.63;;;1.27;;
7539;SDS011;3811;49.006;12.076;2023-04-03T11:03:29;1.47;;;1.37;;
7539;SDS011;3811;49.006;12.076;2023-04-03T11:06:02;2.20;;;1.40;;
7539;SDS011;3811;49.006;12.076;2023-04-03T11:08:33;1.50;;;1.33;;
7539;SDS011;3811;49.006;12.076;2023-04-03T11:11:04;1.70;;;1.23;;
7539;SDS011;3811;49.006;12.076;2023-04-03T11:13:38;1.50;;;1.40;;
7539;SDS011;3811;49.006;12.076;2023-04-03T11:16:09;1.63;;;1.53;;
7539;SDS011;3811;49.006;12.076;2023-04-03T11:18:43;1.73;;;1.50;;
7539;SDS011;3811;49.006;12.076;2023-04-03T11:21:16;1.27;;;1.00;;
7539;SDS011;3811;49.006;12.076;2023-04-03T11:23:48;2.00;;;1.20;;
7539;SDS011;3811;49.006;12.076;2023-04-03T11:26:15;1.60;;;1.50;;
7539;SDS011;3811;49.006;12.076;2023-04-03T11:28:47;2.30;;;1.40;;
7539;SDS011;3811;49.006;12.076;2023-04-03T11:31:25;1.50;;;1.10;;
7539;SDS011;3811;49.006;12.076;2023-04-03T11:34:08;3.97;;;1.80;;
7539;SDS011;3811;49.006;12.076;2023-04-03T11:36:50;1.70;;;1.60;;
7539;SDS011;3811;49.006;12.076;2023-04-03T11:39:21;1.23;;;1.17;;
7539;SDS011;3811;49.006;12.076;2023-04-03T11:41:53;3.17;;;1.20;;
7539;SDS011;3811;49.006;12.076;2023-04-03T11:44:30;1.53;;;1.40;;
7539;SDS011;3811;49.006;12.076;2023-04-03T11:47:00;1.57;;;1.47;;
7539;SDS011;3811;49.006;12.076;2023-04-03T11:49:50;1.53;;;1.43;;
7539;SDS011;3811;49.006;12.076;2023-04-03T11:55:43;1.47;;;1.37;;
7539;SDS011;3811;49.006;12.076;2023-04-03T11:58:29;1.30;;;1.20;;
7539;SDS011;3811;49.006;12.076;2023-04-03T12:01:03;1.90;;;1.30;;
7539;SDS011;3811;49.006;12.076;2023-04-03T12:09:26;1.43;;;1.23;;
7539;SDS011;3811;49.006;12.076;2023-04-03T12:12:00;1.97;;;1.30;;
7539;SDS011;3811;49.006;12.076;2023-04-03T12:14:47;2.43;;;1.87;;
7539;SDS011;3811;49.006;12.076;2023-04-03T12:17:20;1.23;;;1.17;;
7539;SDS011;3811;49.006;12.076;2023-04-03T12:19:50;1.20;;;1.20;;
7539;SDS011;3811;49.006;12.076;2023-04-03T12:22:17;1.40;;;1.30;;
7539;SDS011;3811;49.006;12.076;2023-04-03T12:24:47;2.10;;;1.60;;
7539;SDS011;3811;49.006;12.076;2023-04-03T12:27:17;2.07;;;1.70;;
7539;SDS011;3811;49.006;12.076;2023-04-03T12:29:50;2.00;;;1.50;;
7539;SDS011;3811;49.006;12.076;2023-04-03T12:32:43;2.63;;;1.40;;
7539;SDS011;3811;49.006;12.076;2023-04-03T12:35:29;1.23;;;1.23;;
7539;SDS011;3811;49.006;12.076;2023-04-03T12:38:21;1.53;;;1.43;;
7539;SDS011;3811;49.006;12.076;2023-04-03T12:41:11;1.10;;;1.10;;
7539;SDS011;3811;49.006;12.076;2023-04-03T12:43:55;2.20;;;1.70;;
7539;SDS011;3811;49.006;12.076;2023-04-03T12:46:36;1.87;;;1.67;;
7539;SDS011;3811;49.006;12.076;2023-04-03T12:49:14;1.57;;;1.50;;
7539;SDS011;3811;49.006;12.076;2023-04-03T12:51:45;2.27;;;1.77;;
7539;SDS011;3811;49.006;12.076;2023-04-03T12:54:14;1.70;;;1.50;;
7539;SDS011;3811;49.006;12.076;2023-04-03T12:56:44;1.53;;;1.43;;
7539;SDS011;3811;49.006;12.076;2023-04-03T12:59:12;1.50;;;1.40;;
7539;SDS011;3811;49.006;12.076;2023-04-03T13:01:40;1.50;;;1.40;;
7539;SDS011;3811;49.006;12.076;2023-04-03T13:04:09;2.10;;;1.53;;
7539;SDS011;3811;49.006;12.076;2023-04-03T13:06:39;1.60;;;1.50;;
7539;SDS011;3811;49.006;12.076;2023-04-03T13:09:17;1.50;;;1.40;;
7539;SDS011;3811;49.006;12.076;2023-04-03T13:11:48;1.57;;;1.47;;
7539;SDS011;3811;49.006;12.076;2023-04-03T13:14:17;2.53;;;1.40;;
7539;SDS011;3811;49.006;12.076;2023-04-03T13:16:52;2.43;;;1.50;;
7539;SDS011;3811;49.006;12.076;2023-04-03T13:19:19;1.90;;;1.40;;
7539;SDS011;3811;49.006;12.076;2023-04-03T13:21:48;1.63;;;1.50;;
7539;SDS011;3811;49.006;12.076;2023-04-03T13:24:18;1.50;;;1.40;;
7539;SDS011;3811;49.006;12.076;2023-04-03T13:26:45;1.87;;;1.67;;
7539;SDS011;3811;49.006;12.076;2023-04-03T13:29:19;1.20;;;1.20;;
7539;SDS011;3811;49.006;12.076;2023-04-03T13:31:48;1.27;;;1.17;;
7539;SDS011;3811;49.006;12.076;2023-04-03T13:34:22;1.60;;;1.50;;
7539;SDS011;3811;49.006;12.076;2023-04-03T13:36:57;1.67;;;1.40;;
7539;SDS011;3811;49.006;12.076;2023-04-03T13:39:25;1.47;;;1.37;;
7539;SDS011;3811;49.006;12.076;2023-04-03T13:41:53;2.27;;;1.43;;
7539;SDS011;3811;49.006;12.076;2023-04-03T13:44:29;1.47;;;1.37;;
7539;SDS011;3811;49.006;12.076;2023-04-03T13:46:57;1.60;;;1.50;;
7539;SDS011;3811;49.006;12.076;2023-04-03T13:49:29;2.00;;;1.50;;
7539;SDS011;3811;49.006;12.076;2023-04-03T13:51:59;1.70;;;1.60;;
7539;SDS011;3811;49.006;12.076;2023-04-03T13:54:29;1.40;;;1.30;;
7539;SDS011;3811;49.006;12.076;2023-04-03T13:56:57;1.83;;;1.33;;
7539;SDS011;3811;49.006;12.076;2023-04-03T13:59:27;1.10;;;1.00;;
7539;SDS011;3811;49.006;12.076;2023-04-03T14:01:55;2.43;;;1.20;;
7539;SDS011;3811;49.006;12.076;2023-04-03T14:04:44;1.27;;;1.17;;
7539;SDS011;3811;49.006;12.076;2023-04-03T14:07:13;1.40;;;1.30;;
7539;SDS011;3811;49.006;12.076;2023-04-03T14:09:43;1.50;;;1.30;;
7539;SDS011;3811;49.006;12.076;2023-04-03T14:12:13;2.73;;;1.23;;
7539;SDS011;3811;49.006;12.076;2023-04-03T14:14:42;2.07;;;1.40;;
7539;SDS011;3811;49.006;12.076;2023-04-03T14:17:10;2.83;;;1.50;;
7539;SDS011;3811;49.006;12.076;2023-04-03T14:19:39;2.20;;;1.70;;
7539;SDS011;3811;49.006;12.076;2023-04-03T14:22:10;1.60;;;1.23;;
7539;SDS011;3811;49.006;12.076;2023-04-03T14:24:42;2.73;;;1.40;;
7539;SDS011;3811;49.006;12.076;2023-04-03T14:27:11;1.27;;;1.17;;
7539;SDS011;3811;49.006;12.076;2023-04-03T14:29:42;1.17;;;1.17;;
7539;SDS011;3811;49.006;12.076;2023-04-03T14:32:10;1.50;;;1.40;;
7539;SDS011;3811;49.006;12.076;2023-04-03T14:34:38;1.40;;;1.30;;
7539;SDS011;3811;49.006;12.076;2023-04-03T14:37:09;1.80;;;1.40;;
7539;SDS011;3811;49.006;12.076;2023-04-03T14:39:38;1.60;;;1.50;;
7539;SDS011;3811;49.006;12.076;2023-04-03T14:42:06;1.80;;;1.70;;
7539;SDS011;3811;49.006;12.076;2023-04-03T14:44:33;2.83;;;1.70;;
7539;SDS011;3811;49.006;12.076;2023-04-03T14:47:00;2.10;;;1.80;;
7539;SDS011;3811;49.006;12.076;2023-04-03T14:49:28;2.70;;;1.60;;
7539;SDS011;3811;49.006;12.076;2023-04-03T14:51:56;2.47;;;1.53;;
7539;SDS011;3811;49.006;12.076;2023-04-03T14:54:26;1.73;;;1.60;;
7539;SDS011;3811;49.006;12.076;2023-04-03T14:56:59;2.10;;;1.90;;
7539;SDS011;3811;49.006;12.076;2023-04-03T14:59:27;1.80;;;1.70;;
7539;SDS011;3811;49.006;12.076;2023-04-03T15:01:55;2.27;;;1.87;;
7539;SDS011;3811;49.006;12.076;2023-04-03T15:04:22;5.40;;;2.20;;
7539;SDS011;3811;49.006;12.076;2023-04-03T15:06:50;2.57;;;1.50;;
7539;SDS011;3811;49.006;12.076;2023-04-03T15:09:19;2.80;;;1.60;;
7539;SDS011;3811;49.006;12.076;2023-04-03T15:11:48;2.20;;;1.90;;
7539;SDS011;3811;49.006;12.076;2023-04-03T15:14:17;2.10;;;1.77;;
7539;SDS011;3811;49.006;12.076;2023-04-03T15:16:44;1.70;;;1.57;;
7539;SDS011;3811;49.006;12.076;2023-04-03T15:19:12;1.73;;;1.30;;
7539;SDS011;3811;49.006;12.076;2023-04-03T15:21:39;2.57;;;1.37;;
7539;SDS011;3811;49.006;12.076;2023-04-03T15:24:08;2.57;;;1.67;;
7539;SDS011;3811;49.006;12.076;2023-04-03T15:26:36;1.53;;;1.43;;
7539;SDS011;3811;49.006;12.076;2023-04-03T15:29:06;1.67;;;1.57;;
7539;SDS011;3811;49.006;12.076;2023-04-03T15:31:35;1.57;;;1.47;;